createdAt,value
2023-05-21T00:00:35.270Z,17.948
2023-05-21T00:01:35.735Z,17.982
2023-05-21T00:02:35.626Z,17.908
2023-05-21T00:03:36.223Z,17.924
2023-05-21T00:04:35.433Z,17.897
2023-05-21T00:06:35.485Z,17.844
2023-05-21T00:08:35.642Z,17.860
2023-05-21T00:09:35.098Z,17.822
2023-05-21T00:10:35.609Z,17.849
2023-05-21T00:11:35.044Z,17.862
2023-05-21T00:12:35.702Z,17.846
2023-05-21T00:13:35.123Z,17.769
2023-05-21T00:14:35.668Z,17.852
2023-05-21T00:15:35.537Z,17.809
2023-05-21T00:16:35.723Z,17.766
2023-05-21T00:17:35.595Z,17.758
2023-05-21T00:19:35.350Z,17.667
2023-05-21T00:20:35.788Z,17.659
2023-05-21T00:21:35.712Z,17.667
2023-05-21T00:22:35.095Z,17.641
2023-05-21T00:23:35.615Z,17.603
2023-05-21T00:24:35.074Z,17.593
2023-05-21T00:25:35.974Z,17.606
2023-05-21T00:27:35.230Z,17.598
2023-05-21T00:28:35.583Z,17.646
2023-05-21T00:30:35.251Z,17.560
2023-05-21T00:31:35.958Z,17.627
2023-05-21T00:32:35.840Z,17.606
2023-05-21T00:33:35.823Z,17.614
2023-05-21T00:34:35.333Z,17.563
2023-05-21T00:35:36.106Z,17.590
2023-05-21T00:37:35.309Z,17.582
2023-05-21T00:38:35.829Z,17.590
2023-05-21T00:39:35.217Z,17.550
2023-05-21T00:40:35.657Z,17.649
2023-05-21T00:41:35.159Z,17.641
2023-05-21T00:42:35.619Z,17.619
2023-05-21T00:43:35.045Z,17.576
2023-05-21T00:44:35.507Z,17.566
2023-05-21T00:45:35.482Z,17.520
2023-05-21T00:46:36.136Z,17.502
2023-05-21T00:47:35.798Z,17.512
2023-05-21T00:48:35.517Z,17.576
2023-05-21T00:49:35.031Z,17.555
2023-05-21T00:50:35.497Z,17.507
2023-05-21T00:51:34.946Z,17.568
2023-05-21T00:52:35.398Z,17.579
2023-05-21T00:53:35.426Z,17.630
2023-05-21T00:54:34.882Z,17.627
2023-05-21T00:55:35.482Z,17.568
2023-05-21T00:56:35.561Z,17.584
2023-05-21T00:57:34.981Z,17.539
2023-05-21T00:58:36.847Z,17.488
2023-05-21T00:59:35.230Z,17.496
2023-05-21T01:00:35.761Z,17.504
2023-05-21T01:01:35.402Z,17.496
2023-05-21T01:02:35.819Z,17.496
2023-05-21T01:03:36.132Z,17.464
2023-05-21T01:04:35.058Z,17.427
2023-05-21T01:05:35.950Z,17.360
2023-05-21T01:07:35.171Z,17.443
2023-05-21T01:08:35.758Z,17.448
2023-05-21T01:09:35.273Z,17.464
2023-05-21T01:10:35.853Z,17.384
2023-05-21T01:11:35.333Z,17.398
2023-05-21T01:12:35.809Z,17.360
2023-05-21T01:13:35.396Z,17.336
2023-05-21T01:14:34.835Z,17.366
2023-05-21T01:15:35.394Z,17.323
2023-05-21T01:16:35.208Z,17.387
2023-05-21T01:17:35.891Z,17.336
2023-05-21T01:18:35.715Z,17.317
2023-05-21T01:19:35.888Z,17.315
2023-05-21T01:20:35.459Z,17.403
2023-05-21T01:21:35.050Z,17.438
2023-05-21T01:22:35.514Z,17.427
2023-05-21T01:23:34.974Z,17.400
2023-05-21T01:24:35.585Z,17.432
2023-05-21T01:25:35.420Z,17.392
2023-05-21T01:26:35.447Z,17.400
2023-05-21T01:27:34.934Z,17.427
2023-05-21T01:28:35.394Z,17.438
2023-05-21T01:29:34.849Z,17.432
2023-05-21T01:30:35.694Z,17.384
2023-05-21T01:31:35.194Z,17.371
2023-05-21T01:32:35.812Z,17.355
2023-05-21T01:33:36.614Z,17.486
2023-05-21T01:35:36.075Z,17.440
2023-05-21T01:36:34.941Z,17.451
2023-05-21T01:37:35.382Z,17.432
2023-05-21T01:38:34.859Z,17.467
2023-05-21T01:39:35.358Z,17.432
2023-05-21T01:40:35.891Z,17.430
2023-05-21T01:41:35.334Z,17.459
2023-05-21T01:42:35.746Z,17.454
2023-05-21T01:43:35.255Z,17.427
2023-05-21T01:44:35.787Z,17.464
2023-05-21T01:45:35.318Z,17.382
2023-05-21T01:46:35.323Z,17.325
2023-05-21T01:47:35.051Z,17.325
2023-05-21T01:48:35.640Z,17.352
2023-05-21T01:49:35.287Z,17.299
2023-05-21T01:50:35.759Z,17.320
2023-05-21T01:51:35.251Z,17.317
2023-05-21T01:52:35.692Z,17.317
2023-05-21T01:53:35.178Z,17.315
2023-05-21T01:54:35.685Z,17.291
2023-05-21T01:55:35.330Z,17.350
2023-05-21T01:56:35.347Z,17.408
2023-05-21T01:57:35.828Z,17.315
2023-05-21T01:58:35.353Z,17.350
2023-05-21T01:59:35.815Z,17.272
2023-05-21T02:00:35.304Z,17.275
2023-05-21T02:01:36.093Z,17.235
2023-05-21T02:02:36.291Z,17.192
2023-05-21T02:03:35.296Z,17.203
2023-05-21T02:05:35.912Z,17.077
2023-05-21T02:06:35.835Z,17.074
2023-05-21T02:07:35.333Z,17.149
2023-05-21T02:08:35.790Z,17.101
2023-05-21T02:09:35.288Z,17.176
2023-05-21T02:10:35.761Z,17.112
2023-05-21T02:11:35.269Z,17.093
2023-05-21T02:12:35.760Z,17.029
2023-05-21T02:13:36.173Z,16.994
2023-05-21T02:14:35.924Z,17.045
2023-05-21T02:15:35.793Z,17.098
2023-05-21T02:16:36.034Z,17.109
2023-05-21T02:17:35.819Z,17.064
2023-05-21T02:18:35.654Z,16.986
2023-05-21T02:19:35.928Z,17.021
2023-05-21T02:20:35.705Z,17.034
2023-05-21T02:22:35.664Z,17.069
2023-05-21T02:23:35.220Z,17.117
2023-05-21T02:24:35.805Z,17.123
2023-05-21T02:25:35.548Z,17.024
2023-05-21T02:26:35.499Z,16.941
2023-05-21T02:27:34.950Z,17.053
2023-05-21T02:28:35.460Z,16.994
2023-05-21T02:29:34.932Z,17.058
2023-05-21T02:30:35.427Z,17.042
2023-05-21T02:31:34.924Z,17.098
2023-05-21T02:32:35.795Z,17.120
2023-05-21T02:33:35.950Z,17.085
2023-05-21T02:34:35.615Z,17.098
2023-05-21T02:35:35.482Z,17.072
2023-05-21T02:36:35.452Z,17.050
2023-05-21T02:37:34.919Z,17.021
2023-05-21T02:38:35.445Z,16.997
2023-05-21T02:39:34.933Z,17.069
2023-05-21T02:40:35.391Z,17.034
2023-05-21T02:41:34.911Z,17.021
2023-05-21T02:42:35.424Z,16.941
2023-05-21T02:43:34.923Z,16.946
2023-05-21T02:44:35.383Z,16.925
2023-05-21T02:45:35.290Z,16.976
2023-05-21T02:46:36.002Z,16.946
2023-05-21T02:47:35.834Z,16.904
2023-05-21T02:49:35.029Z,16.952
2023-05-21T02:50:35.498Z,16.957
2023-05-21T02:51:34.961Z,16.912
2023-05-21T02:52:35.406Z,16.922
2023-05-21T02:53:35.838Z,16.866
2023-05-21T02:54:35.335Z,16.837
2023-05-21T02:55:36.217Z,16.885
2023-05-21T02:56:35.284Z,16.837
2023-05-21T02:57:35.807Z,16.775
2023-05-21T02:58:35.312Z,16.767
2023-05-21T02:59:35.813Z,16.802
2023-05-21T03:00:35.311Z,16.821
2023-05-21T03:01:35.977Z,16.813
2023-05-21T03:02:35.989Z,16.850
2023-05-21T03:03:36.348Z,16.872
2023-05-21T03:04:35.017Z,16.829
2023-05-21T03:05:35.725Z,16.778
2023-05-21T03:06:35.751Z,16.797
2023-05-21T03:07:35.301Z,16.791
2023-05-21T03:08:35.844Z,16.770
2023-05-21T03:09:35.413Z,16.823
2023-05-21T03:10:34.861Z,16.786
2023-05-21T03:11:35.327Z,16.767
2023-05-21T03:12:35.928Z,16.709
2023-05-21T03:13:35.751Z,16.717
2023-05-21T03:16:35.879Z,16.666
2023-05-21T03:17:35.610Z,16.685
2023-05-21T03:18:35.358Z,16.666
2023-05-21T03:19:35.187Z,16.615
2023-05-21T03:20:35.720Z,16.703
2023-05-21T03:21:35.174Z,16.663
2023-05-21T03:22:35.674Z,16.653
2023-05-21T03:23:35.041Z,16.615
2023-05-21T03:24:35.589Z,16.674
2023-05-21T03:25:35.209Z,16.623
2023-05-21T03:26:35.018Z,16.685
2023-05-21T03:27:35.474Z,16.727
2023-05-21T03:28:34.923Z,16.765
2023-05-21T03:29:35.429Z,16.743
2023-05-21T03:30:34.919Z,16.717
2023-05-21T03:31:35.700Z,16.703
2023-05-21T03:32:35.376Z,16.703
2023-05-21T03:33:35.101Z,16.759
2023-05-21T03:34:35.705Z,16.682
2023-05-21T03:35:35.433Z,16.703
2023-05-21T03:36:35.338Z,16.751
2023-05-21T03:37:34.961Z,16.658
2023-05-21T03:38:37.247Z,16.741
2023-05-21T03:40:35.225Z,16.666
2023-05-21T03:41:35.734Z,16.679
2023-05-21T03:43:35.828Z,16.658
2023-05-21T03:44:35.469Z,16.701
2023-05-21T03:45:35.197Z,16.719
2023-05-21T03:46:36.232Z,16.647
2023-05-21T03:47:34.958Z,16.669
2023-05-21T03:48:35.666Z,16.685
2023-05-21T03:49:35.125Z,16.679
2023-05-21T03:50:35.672Z,16.610
2023-05-21T03:51:35.136Z,16.623
2023-05-21T03:52:35.647Z,16.570
2023-05-21T03:53:35.163Z,16.621
2023-05-21T03:54:35.706Z,16.586
2023-05-21T03:55:35.651Z,16.607
2023-05-21T03:56:35.451Z,16.607
2023-05-21T03:57:34.896Z,16.631
2023-05-21T03:58:35.384Z,16.591
2023-05-21T03:59:35.881Z,16.637
2023-05-21T04:00:35.384Z,16.666
2023-05-21T04:01:35.886Z,16.674
2023-05-21T04:02:35.778Z,16.631
2023-05-21T04:03:39.223Z,16.599
2023-05-21T04:04:35.814Z,16.621
2023-05-21T04:05:35.658Z,16.629
2023-05-21T04:06:35.605Z,16.642
2023-05-21T04:07:35.069Z,16.631
2023-05-21T04:08:35.499Z,16.615
2023-05-21T04:09:36.858Z,16.604
2023-05-21T04:11:34.976Z,16.703
2023-05-21T04:12:35.461Z,16.682
2023-05-21T04:13:34.851Z,16.663
2023-05-21T04:14:35.471Z,16.682
2023-05-21T04:15:35.137Z,16.698
2023-05-21T04:16:35.895Z,16.666
2023-05-21T04:18:35.483Z,16.682
2023-05-21T04:19:35.787Z,16.685
2023-05-21T04:20:35.349Z,16.703
2023-05-21T04:21:35.979Z,16.722
2023-05-21T04:22:35.515Z,16.701
2023-05-21T04:23:34.956Z,16.695
2023-05-21T04:24:35.695Z,16.685
2023-05-21T04:25:35.288Z,16.698
2023-05-21T04:27:35.496Z,16.738
2023-05-21T04:28:35.026Z,16.754
2023-05-21T04:29:35.525Z,16.770
2023-05-21T04:30:35.260Z,16.791
2023-05-21T04:31:36.120Z,16.810
2023-05-21T04:32:35.169Z,16.837
2023-05-21T04:33:34.871Z,16.829
2023-05-21T04:34:35.335Z,16.826
2023-05-21T04:35:36.239Z,16.842
2023-05-21T04:36:34.838Z,16.853
2023-05-21T04:37:35.398Z,16.850
2023-05-21T04:38:34.884Z,16.853
2023-05-21T04:39:35.323Z,16.866
2023-05-21T04:40:39.318Z,16.885
2023-05-21T04:41:35.709Z,16.920
2023-05-21T04:42:35.225Z,16.925
2023-05-21T04:43:35.881Z,16.952
2023-05-21T04:44:35.476Z,16.978
2023-05-21T04:45:35.216Z,16.992
2023-05-21T04:46:35.455Z,16.978
2023-05-21T04:47:36.052Z,16.994
2023-05-21T04:48:35.604Z,17.021
2023-05-21T04:49:35.176Z,17.021
2023-05-21T04:50:35.652Z,17.032
2023-05-21T04:51:35.111Z,17.072
2023-05-21T04:52:35.671Z,17.077
2023-05-21T04:54:35.575Z,17.136
2023-05-21T04:55:35.229Z,17.136
2023-05-21T04:56:35.203Z,17.147
2023-05-21T04:57:35.684Z,17.155
2023-05-21T04:58:35.135Z,17.136
2023-05-21T04:59:35.623Z,17.213
2023-05-21T05:00:35.226Z,17.275
2023-05-21T05:01:35.831Z,17.245
2023-05-21T05:02:35.743Z,17.277
2023-05-21T05:03:35.442Z,17.304
2023-05-21T05:05:35.787Z,17.414
2023-05-21T05:06:34.978Z,17.395
2023-05-21T05:07:35.572Z,17.416
2023-05-21T05:08:35.037Z,17.448
2023-05-21T05:09:35.565Z,17.491
2023-05-21T05:10:35.017Z,17.502
2023-05-21T05:11:35.535Z,17.499
2023-05-21T05:12:35.029Z,17.440
2023-05-21T05:13:35.511Z,17.470
2023-05-21T05:14:34.951Z,17.579
2023-05-21T05:15:35.681Z,17.606
2023-05-21T05:16:35.881Z,17.627
2023-05-21T05:17:35.581Z,17.694
2023-05-21T05:18:35.223Z,17.659
2023-05-21T05:19:36.435Z,17.763
2023-05-21T05:20:34.864Z,17.798
2023-05-21T05:21:35.382Z,17.694
2023-05-21T05:22:35.909Z,17.667
2023-05-21T05:23:35.416Z,17.694
2023-05-21T05:24:34.908Z,17.844
2023-05-21T05:25:35.571Z,17.884
2023-05-21T05:26:35.787Z,17.881
2023-05-21T05:27:37.707Z,17.966
2023-05-21T05:28:34.958Z,18.068
2023-05-21T05:29:35.434Z,17.988
2023-05-21T05:30:35.194Z,17.897
2023-05-21T05:31:36.292Z,18.129
2023-05-21T05:32:36.149Z,18.156
2023-05-21T05:33:35.676Z,18.036
2023-05-21T05:34:35.074Z,18.183
2023-05-21T05:35:35.741Z,18.193
2023-05-21T05:37:35.232Z,18.233
2023-05-21T05:38:35.732Z,18.209
2023-05-21T05:39:35.264Z,18.212
2023-05-21T05:40:35.824Z,18.370
2023-05-21T05:41:35.432Z,18.452
2023-05-21T05:42:34.935Z,18.581
2023-05-21T05:43:35.411Z,18.655
2023-05-21T05:44:34.895Z,18.613
2023-05-21T05:45:35.443Z,18.423
2023-05-21T05:46:36.162Z,18.703
2023-05-21T05:47:34.960Z,18.799
2023-05-21T05:48:35.596Z,18.874
2023-05-21T05:49:35.189Z,18.816
2023-05-21T05:50:35.714Z,18.703
2023-05-21T05:51:35.140Z,18.754
2023-05-21T05:52:35.550Z,18.711
2023-05-21T05:53:34.998Z,19.125
2023-05-21T05:54:35.471Z,19.358
2023-05-21T05:55:35.202Z,19.326
2023-05-21T05:56:35.511Z,19.240
2023-05-21T05:57:34.977Z,19.537
2023-05-21T05:58:35.410Z,19.844
2023-05-21T05:59:34.821Z,19.579
2023-05-21T06:00:35.270Z,19.731
2023-05-21T06:01:35.714Z,19.734
2023-05-21T06:02:35.826Z,19.894
2023-05-21T06:03:36.633Z,19.905
2023-05-21T06:04:35.548Z,19.488
2023-05-21T06:05:35.453Z,19.673
2023-05-21T06:06:35.813Z,19.633
2023-05-21T06:07:35.258Z,19.574
2023-05-21T06:08:38.082Z,19.910
2023-05-21T06:09:35.854Z,20.060
2023-05-21T06:10:35.412Z,19.905
2023-05-21T06:11:34.981Z,20.116
2023-05-21T06:12:35.468Z,20.159
2023-05-21T06:13:34.974Z,20.284
2023-05-21T06:14:35.452Z,20.543
2023-05-21T06:15:35.249Z,19.982
2023-05-21T06:16:36.757Z,19.844
2023-05-21T06:18:35.386Z,19.790
2023-05-21T06:19:35.172Z,19.456
2023-05-21T06:20:35.683Z,19.475
2023-05-21T06:21:35.194Z,19.659
2023-05-21T06:22:35.689Z,19.841
2023-05-21T06:23:35.435Z,19.729
2023-05-21T06:24:34.931Z,19.472
2023-05-21T06:25:35.699Z,19.774
2023-05-21T06:26:35.906Z,19.836
2023-05-21T06:27:35.284Z,19.942
2023-05-21T06:28:35.782Z,20.017
2023-05-21T06:29:35.297Z,20.033
2023-05-21T06:30:35.758Z,20.183
2023-05-21T06:31:35.165Z,19.833
2023-05-21T06:32:36.464Z,19.966
2023-05-21T06:33:35.445Z,20.199
2023-05-21T06:35:36.070Z,20.452
2023-05-21T06:36:34.881Z,20.618
2023-05-21T06:37:36.038Z,19.862
2023-05-21T06:38:35.466Z,19.614
2023-05-21T06:39:34.957Z,19.942
2023-05-21T06:40:35.386Z,20.068
2023-05-21T06:41:35.869Z,20.343
2023-05-21T06:42:35.358Z,20.145
2023-05-21T06:43:35.772Z,20.252
2023-05-21T06:44:35.244Z,20.055
2023-05-21T06:45:36.131Z,20.484
2023-05-21T06:46:35.884Z,20.519
2023-05-21T06:47:35.629Z,20.503
2023-05-21T06:48:35.195Z,20.476
2023-05-21T06:49:35.721Z,20.599
2023-05-21T06:52:35.192Z,20.794
2023-05-21T06:53:35.698Z,20.984
2023-05-21T06:54:35.135Z,20.933
2023-05-21T06:55:35.849Z,21.008
2023-05-21T06:56:35.777Z,21.115
2023-05-21T06:57:35.279Z,21.384
2023-05-21T06:58:35.781Z,21.152
2023-05-21T06:59:35.277Z,21.096
2023-05-21T07:00:35.853Z,20.746
2023-05-21T07:01:35.589Z,20.904
2023-05-21T07:02:36.255Z,20.893
2023-05-21T07:03:35.585Z,21.160
2023-05-21T07:04:35.299Z,21.187
2023-05-21T07:05:35.980Z,21.131
2023-05-21T07:06:35.186Z,20.872
2023-05-21T07:07:35.755Z,20.653
2023-05-21T07:08:35.203Z,20.679
2023-05-21T07:09:35.702Z,20.626
2023-05-21T07:10:35.186Z,20.615
2023-05-21T07:11:35.683Z,21.179
2023-05-21T07:12:35.168Z,21.334
2023-05-21T07:13:35.759Z,21.112
2023-05-21T07:14:35.289Z,21.088
2023-05-21T07:15:35.854Z,21.168
2023-05-21T07:16:35.113Z,21.035
2023-05-21T07:17:36.163Z,21.075
2023-05-21T07:18:34.927Z,20.954
2023-05-21T07:19:35.870Z,21.448
2023-05-21T07:20:35.336Z,21.494
2023-05-21T07:21:35.831Z,21.117
2023-05-21T07:22:35.345Z,21.032
2023-05-21T07:23:35.037Z,21.096
2023-05-21T07:24:35.656Z,21.176
2023-05-21T07:26:35.045Z,21.609
2023-05-21T07:27:35.601Z,21.165
2023-05-21T07:28:35.175Z,21.288
2023-05-21T07:29:35.649Z,20.952
2023-05-21T07:30:35.113Z,20.893
2023-05-21T07:31:36.091Z,20.949
2023-05-21T07:33:35.625Z,21.171
2023-05-21T07:34:35.060Z,21.035
2023-05-21T07:35:35.745Z,21.366
2023-05-21T07:36:35.648Z,21.189
2023-05-21T07:37:35.207Z,20.909
2023-05-21T07:38:34.955Z,21.179
2023-05-21T07:39:35.414Z,21.075
2023-05-21T07:40:34.850Z,21.275
2023-05-21T07:41:35.552Z,20.856
2023-05-21T07:42:35.036Z,20.733
2023-05-21T07:43:35.528Z,20.626
2023-05-21T07:44:34.978Z,21.048
2023-05-21T07:45:35.699Z,20.778
2023-05-21T07:46:36.202Z,21.165
2023-05-21T07:48:38.197Z,21.497
2023-05-21T07:50:35.059Z,21.897
2023-05-21T07:51:35.553Z,22.087
2023-05-21T07:52:35.029Z,22.199
2023-05-21T07:53:35.676Z,22.025
2023-05-21T07:54:35.234Z,22.145
2023-05-21T07:55:35.930Z,21.873
2023-05-21T07:56:35.883Z,22.295
2023-05-21T07:57:35.317Z,22.180
2023-05-21T07:58:35.983Z,21.745
2023-05-21T07:59:35.423Z,21.961
2023-05-21T08:00:34.915Z,21.521
2023-05-21T08:01:35.386Z,21.742
2023-05-21T08:02:35.288Z,22.031
2023-05-21T08:03:36.175Z,21.667
2023-05-21T08:04:36.578Z,21.641
2023-05-21T08:06:35.407Z,21.502
2023-05-21T08:07:35.874Z,21.262
2023-05-21T08:08:35.333Z,21.240
2023-05-21T08:09:35.865Z,21.593
2023-05-21T08:10:35.328Z,21.999
2023-05-21T08:11:35.882Z,21.980
2023-05-21T08:12:35.412Z,22.156
2023-05-21T08:13:34.886Z,22.420
2023-05-21T08:14:35.379Z,21.910
2023-05-21T08:15:36.040Z,21.788
2023-05-21T08:16:36.134Z,21.643
2023-05-21T08:17:35.079Z,21.646
2023-05-21T08:18:35.906Z,21.766
2023-05-21T08:19:35.765Z,21.790
2023-05-21T08:20:35.544Z,22.017
2023-05-21T08:23:35.018Z,22.127
2023-05-21T08:24:35.544Z,22.378
2023-05-21T08:25:35.157Z,22.434
2023-05-21T08:26:35.309Z,22.575
2023-05-21T08:27:35.932Z,22.880
2023-05-21T08:28:35.375Z,22.896
2023-05-21T08:29:35.973Z,22.356
2023-05-21T08:30:35.412Z,22.234
2023-05-21T08:31:35.021Z,22.028
2023-05-21T08:32:35.948Z,22.049
2023-05-21T08:33:35.867Z,21.769
2023-05-21T08:34:35.593Z,22.439
2023-05-21T08:37:35.494Z,23.248
2023-05-21T08:38:35.903Z,23.406
2023-05-21T08:39:35.348Z,23.408
2023-05-21T08:40:35.843Z,23.176
2023-05-21T08:41:35.417Z,23.392
2023-05-21T08:42:42.991Z,23.483
2023-05-21T08:43:35.496Z,22.949
2023-05-21T08:45:35.597Z,23.075
2023-05-21T08:47:36.064Z,23.173
2023-05-21T08:48:35.737Z,22.693
2023-05-21T08:49:35.211Z,22.362
2023-05-21T08:50:35.800Z,22.383
2023-05-21T08:51:35.282Z,21.932
2023-05-21T08:52:35.774Z,22.450
2023-05-21T08:53:35.283Z,22.346
2023-05-21T08:54:35.706Z,22.786
2023-05-21T08:55:35.413Z,22.605
2023-05-21T08:56:35.159Z,22.877
2023-05-21T08:57:35.679Z,23.275
2023-05-21T08:58:35.150Z,23.117
2023-05-21T08:59:35.681Z,22.987
2023-05-21T09:00:35.132Z,23.155
2023-05-21T09:01:36.243Z,23.425
2023-05-21T09:03:36.370Z,24.055
2023-05-21T09:04:35.302Z,23.884
2023-05-21T09:05:35.520Z,23.230
2023-05-21T09:06:35.435Z,23.323
2023-05-21T09:07:34.903Z,23.088
2023-05-21T09:08:35.334Z,23.035
2023-05-21T09:09:34.886Z,23.355
2023-05-21T09:10:35.452Z,23.275
2023-05-21T09:11:34.886Z,23.438
2023-05-21T09:12:35.414Z,23.390
2023-05-21T09:13:36.319Z,23.280
2023-05-21T09:14:35.772Z,23.315
2023-05-21T09:15:35.385Z,23.230
2023-05-21T09:16:35.783Z,23.235
2023-05-21T09:17:35.710Z,23.216
2023-05-21T09:18:35.392Z,23.625
2023-05-21T09:19:35.454Z,24.092
2023-05-21T09:22:35.307Z,23.254
2023-05-21T09:23:35.744Z,23.051
2023-05-21T09:24:39.021Z,23.483
2023-05-21T09:26:35.150Z,23.211
2023-05-21T09:27:35.686Z,23.521
2023-05-21T09:28:35.186Z,23.590
2023-05-21T09:29:35.660Z,23.964
2023-05-21T09:30:42.173Z,24.274
2023-05-21T09:31:35.768Z,24.260
2023-05-21T09:32:35.434Z,23.497
2023-05-21T09:33:35.353Z,23.451
2023-05-21T09:34:35.067Z,23.732
2023-05-21T09:35:36.236Z,24.009
2023-05-21T09:36:35.196Z,24.148
2023-05-21T09:37:37.110Z,24.386
2023-05-21T09:38:35.776Z,24.164
2023-05-21T09:39:35.338Z,24.295
2023-05-21T09:40:36.053Z,24.314
2023-05-21T09:41:34.866Z,24.979
2023-05-21T09:42:35.417Z,25.000
2023-05-21T09:43:34.951Z,24.765
2023-05-21T09:44:35.404Z,24.637
2023-05-21T09:45:36.066Z,25.013
2023-05-21T09:46:36.078Z,24.642
2023-05-21T09:47:35.865Z,24.770
2023-05-21T09:48:35.506Z,24.925
2023-05-21T09:50:35.863Z,25.513
2023-05-21T09:51:35.920Z,26.017
2023-05-21T09:52:35.356Z,25.975
2023-05-21T09:53:34.928Z,26.095
2023-05-21T09:54:35.449Z,25.916
2023-05-21T09:55:34.851Z,25.820
2023-05-21T09:56:35.399Z,25.692
2023-05-21T09:57:35.897Z,25.182
2023-05-21T09:58:35.447Z,24.597
2023-05-21T09:59:34.903Z,24.669
2023-05-21T10:00:35.668Z,24.933
2023-05-21T10:01:35.564Z,24.712
2023-05-21T10:02:35.222Z,24.306
2023-05-21T10:03:34.937Z,23.932
2023-05-21T10:04:35.512Z,23.708
2023-05-21T10:07:35.821Z,23.606
2023-05-21T10:08:35.245Z,23.740
2023-05-21T10:09:35.780Z,24.327
2023-05-21T10:10:35.418Z,23.894
2023-05-21T10:11:35.632Z,23.790
2023-05-21T10:12:35.266Z,24.084
2023-05-21T10:13:35.711Z,24.503
2023-05-21T10:14:35.187Z,24.869
2023-05-21T10:15:35.703Z,24.891
2023-05-21T10:16:35.389Z,24.437
2023-05-21T10:17:35.256Z,24.963
2023-05-21T10:18:35.856Z,25.184
2023-05-21T10:19:35.774Z,24.503
2023-05-21T10:20:35.360Z,24.143
2023-05-21T10:21:35.360Z,24.359
2023-05-21T10:22:35.825Z,24.306
2023-05-21T10:23:35.251Z,24.252
2023-05-21T10:24:35.721Z,24.551
2023-05-21T10:25:35.152Z,24.768
2023-05-21T10:26:35.655Z,24.786
2023-05-21T10:27:38.084Z,24.920
2023-05-21T10:28:35.559Z,24.733
2023-05-21T10:30:35.705Z,24.888
2023-05-21T10:31:36.050Z,25.387
2023-05-21T10:32:36.230Z,25.126
2023-05-21T10:33:35.484Z,24.909
2023-05-21T10:34:35.132Z,24.640
2023-05-21T10:35:35.903Z,25.190
2023-05-21T10:36:35.834Z,25.232
2023-05-21T10:37:35.310Z,26.009
2023-05-21T10:38:35.767Z,26.092
2023-05-21T10:39:35.305Z,25.598
2023-05-21T10:40:35.942Z,25.467
2023-05-21T10:41:34.942Z,25.529
2023-05-21T10:42:35.426Z,25.502
2023-05-21T10:43:34.870Z,25.182
2023-05-21T10:44:35.394Z,25.011
2023-05-21T10:45:36.145Z,25.083
2023-05-21T10:46:35.722Z,24.893
2023-05-21T10:47:35.228Z,25.224
2023-05-21T10:48:35.818Z,24.963
2023-05-21T10:49:35.263Z,25.134
2023-05-21T10:50:35.881Z,25.326
2023-05-21T10:51:35.887Z,25.067
2023-05-21T10:52:35.324Z,25.339
2023-05-21T10:53:36.031Z,25.272
2023-05-21T10:54:35.537Z,25.019
2023-05-21T10:55:34.969Z,25.147
2023-05-21T10:56:35.737Z,25.686
2023-05-21T10:58:39.081Z,26.359
2023-05-21T10:59:35.543Z,25.935
2023-05-21T11:01:36.086Z,26.335
2023-05-21T11:02:35.237Z,25.598
2023-05-21T11:03:39.325Z,25.652
2023-05-21T11:04:35.256Z,25.069
2023-05-21T11:05:35.741Z,25.307
2023-05-21T11:06:35.288Z,25.550
2023-05-21T11:07:35.748Z,25.967
2023-05-21T11:08:35.196Z,26.212
2023-05-21T11:09:35.722Z,25.753
2023-05-21T11:10:35.334Z,25.753
2023-05-21T11:11:35.636Z,26.242
2023-05-21T11:12:35.090Z,26.551
2023-05-21T11:13:35.608Z,27.008
2023-05-21T11:14:35.383Z,27.075
2023-05-21T11:15:35.163Z,26.979
2023-05-21T11:16:35.751Z,27.326
2023-05-21T11:17:35.538Z,26.725
2023-05-21T11:18:34.999Z,26.802
2023-05-21T11:19:39.500Z,26.266
2023-05-21T11:21:34.900Z,26.757
2023-05-21T11:22:35.377Z,27.056
2023-05-21T11:23:34.923Z,27.056
2023-05-21T11:24:35.331Z,26.538
2023-05-21T11:25:35.798Z,27.027
2023-05-21T11:26:35.236Z,27.350
2023-05-21T11:27:35.759Z,27.745
2023-05-21T11:28:35.365Z,27.585
2023-05-21T11:29:35.809Z,27.163
2023-05-21T11:30:35.960Z,26.800
2023-05-21T11:31:35.534Z,26.535
2023-05-21T11:32:35.373Z,26.354
2023-05-21T11:33:35.015Z,26.640
2023-05-21T11:34:35.479Z,26.648
2023-05-21T11:35:34.936Z,27.112
2023-05-21T11:36:38.616Z,27.075
2023-05-21T11:37:35.081Z,26.698
2023-05-21T11:38:34.881Z,26.760
2023-05-21T11:39:35.467Z,26.810
2023-05-21T11:40:35.142Z,26.883
2023-05-21T11:41:35.195Z,27.275
2023-05-21T11:42:35.643Z,27.451
2023-05-21T11:43:35.150Z,27.414
2023-05-21T11:44:35.593Z,26.789
2023-05-21T11:45:35.157Z,26.626
2023-05-21T11:46:35.879Z,26.122
2023-05-21T11:47:35.856Z,26.426
2023-05-21T11:48:38.021Z,26.490
2023-05-21T11:49:35.546Z,26.431
2023-05-21T11:50:35.388Z,26.543
2023-05-21T11:51:35.713Z,27.043
2023-05-21T11:52:35.224Z,26.525
2023-05-21T11:53:35.077Z,26.832
2023-05-21T11:54:35.151Z,27.021
2023-05-21T11:55:35.706Z,27.021
2023-05-21T11:56:35.174Z,27.491
2023-05-21T11:57:35.688Z,28.044
2023-05-21T11:58:35.413Z,27.572
2023-05-21T11:59:34.907Z,27.959
2023-05-21T12:00:35.578Z,27.780
2023-05-21T12:01:35.601Z,28.001
2023-05-21T12:02:36.085Z,28.573
2023-05-21T12:03:36.735Z,28.434
2023-05-21T12:04:35.776Z,28.066
2023-05-21T12:05:35.386Z,28.234
2023-05-21T12:06:35.170Z,28.514
2023-05-21T12:07:35.843Z,28.685
2023-05-21T12:10:35.621Z,28.562
2023-05-21T12:11:35.309Z,28.901
2023-05-21T12:12:54.916Z,28.373
2023-05-21T12:14:35.502Z,28.650
2023-05-21T12:15:35.591Z,29.281
2023-05-21T12:16:35.253Z,30.012
2023-05-21T12:17:35.964Z,30.074
2023-05-21T12:18:35.630Z,30.445
2023-05-21T12:19:35.248Z,30.175
2023-05-21T12:20:35.920Z,29.745
2023-05-21T12:21:35.698Z,30.148
2023-05-21T12:22:35.188Z,29.550
2023-05-21T12:23:35.677Z,29.048
2023-05-21T12:24:35.179Z,29.604
2023-05-21T12:25:35.776Z,30.306
2023-05-21T12:26:35.305Z,30.570
2023-05-21T12:27:37.888Z,30.634
2023-05-21T12:28:35.378Z,31.003
2023-05-21T12:29:35.823Z,30.933
2023-05-21T12:30:35.727Z,30.901
2023-05-21T12:31:35.951Z,31.257
2023-05-21T12:32:35.770Z,30.872
2023-05-21T12:33:35.396Z,30.875
2023-05-21T12:34:34.836Z,30.968
2023-05-21T12:35:35.970Z,31.155
2023-05-21T12:36:35.581Z,30.605
2023-05-21T12:37:35.001Z,29.705
2023-05-21T12:38:35.543Z,28.907
2023-05-21T12:39:34.972Z,28.103
2023-05-21T12:40:35.599Z,27.465
2023-05-21T12:41:35.770Z,27.259
2023-05-21T12:42:35.276Z,27.334
2023-05-21T12:43:35.783Z,27.681
2023-05-21T12:44:37.077Z,28.845
2023-05-21T12:46:35.423Z,29.112
2023-05-21T12:47:35.416Z,28.893
2023-05-21T12:48:35.026Z,28.642
2023-05-21T12:49:35.404Z,28.359
2023-05-21T12:50:36.329Z,29.022
2023-05-21T12:51:35.475Z,28.666
2023-05-21T12:52:34.952Z,28.992
2023-05-21T12:53:35.470Z,28.562
2023-05-21T12:54:34.946Z,28.976
2023-05-21T12:55:35.683Z,28.896
2023-05-21T12:56:35.155Z,29.195
2023-05-21T12:57:35.663Z,29.385
2023-05-21T12:58:35.188Z,29.206
2023-05-21T12:59:35.662Z,29.395
2023-05-21T13:00:35.450Z,29.628
2023-05-21T13:01:34.924Z,29.427
2023-05-21T13:02:35.967Z,29.155
2023-05-21T13:03:35.139Z,28.413
2023-05-21T13:04:35.937Z,28.033
2023-05-21T13:05:35.369Z,27.801
2023-05-21T13:06:35.788Z,27.462
2023-05-21T13:07:35.329Z,28.359
2023-05-21T13:08:35.871Z,29.673
2023-05-21T13:09:35.322Z,30.191
2023-05-21T13:10:35.987Z,30.554
2023-05-21T13:11:35.205Z,31.347
2023-05-21T13:12:35.804Z,30.888
2023-05-21T13:14:35.071Z,31.572
2023-05-21T13:15:36.010Z,31.342
2023-05-21T13:16:35.997Z,31.203
2023-05-21T13:17:35.695Z,31.462
2023-05-21T13:18:35.290Z,31.897
2023-05-21T13:19:36.447Z,32.290
2023-05-21T13:20:35.050Z,32.474